Time;durP1;ratioP1;P1;durP2;ratioP2;P2;SDS_P1;SDS_P2;PMS_P1;PMS_P2;Temp;Humidity;BMP_temperature;BMP_pressure;BME280_temperature;BME280_humidity;BME280_pressure;Samples;Min_cycle;Max_cycle;Signal;HPM_P1;HPM_P2
2022/10/24 08:19:35;;;;;;;2.20;0.63;;;17.30;99.90;;;;;;6336320;22;20212;-71
2022/10/24 08:22:02;;;;;;;4.70;0.60;;;17.60;99.90;;;;;;6338576;22;20179;-71
2022/10/24 08:24:29;;;;;;;4.47;0.60;;;17.80;99.90;;;;;;6338922;22;20199;-72
2022/10/24 08:26:56;;;;;;;4.80;0.63;;;17.90;99.90;;;;;;6338233;22;20268;-73
2022/10/24 08:29:24;;;;;;;2.95;0.52;;;17.90;99.90;;;;;;6338352;22;20258;-73
2022/10/24 08:31:52;;;;;;;3.10;0.70;;;18.20;99.90;;;;;;6338771;22;20256;-73
2022/10/24 08:34:19;;;;;;;5.50;0.70;;;18.40;99.90;;;;;;6337972;22;20469;-71
2022/10/24 08:36:49;;;;;;;3.70;0.63;;;18.60;99.90;;;;;;6338323;22;20177;-72
2022/10/24 08:39:16;;;;;;;4.25;0.65;;;18.40;99.90;;;;;;6338122;22;20179;-72
2022/10/24 08:41:46;;;;;;;4.43;0.70;;;18.40;99.90;;;;;;6338297;22;20188;-73
2022/10/24 08:44:21;;;;;;;2.45;0.60;;;18.30;99.90;;;;;;6338079;22;20204;-71
2022/10/24 08:46:52;;;;;;;2.67;0.63;;;18.20;99.90;;;;;;6337075;22;20180;-78
2022/10/24 08:49:27;;;;;;;5.20;0.77;;;18.20;99.90;;;;;;6337608;22;20180;-71
2022/10/24 08:51:59;;;;;;;3.83;0.68;;;18.30;99.90;;;;;;6337977;22;20230;-70
2022/10/24 08:54:32;;;;;;;6.15;0.65;;;18.40;99.90;;;;;;6337948;22;20673;-71
2022/10/24 08:57:00;;;;;;;11.05;0.70;;;18.10;99.90;;;;;;6330790;22;20177;-74
2022/10/24 08:59:30;;;;;;;3.77;0.80;;;18.00;99.90;;;;;;6335291;22;20173;-72
2022/10/24 09:02:01;;;;;;;2.43;0.50;;;17.90;99.90;;;;;;6336038;22;20618;-73
2022/10/24 09:04:34;;;;;;;3.50;0.80;;;17.90;99.90;;;;;;6335289;22;20193;-71
2022/10/24 09:07:03;;;;;;;4.00;0.90;;;18.00;99.90;;;;;;6336657;22;20181;-72
2022/10/24 09:09:38;;;;;;;4.47;1.15;;;18.10;99.90;;;;;;6337042;22;20177;-72
2022/10/24 09:12:11;;;;;;;1.88;0.50;;;18.00;99.90;;;;;;6337966;22;20249;-74
2022/10/24 09:14:40;;;;;;;7.13;0.80;;;18.10;99.90;;;;;;6337503;22;20197;-71
2022/10/24 09:17:14;;;;;;;5.25;0.98;;;18.20;99.90;;;;;;6337995;22;20629;-73
2022/10/24 09:19:45;;;;;;;2.70;1.00;;;18.10;99.90;;;;;;6337834;22;20181;-72
2022/10/24 09:22:13;;;;;;;5.35;0.68;;;18.20;99.90;;;;;;6338585;22;20174;-73
2022/10/24 09:24:46;;;;;;;4.63;0.90;;;18.10;99.90;;;;;;6337825;22;20691;-73
2022/10/24 09:27:17;;;;;;;3.95;0.55;;;17.90;99.90;;;;;;6339621;22;20177;-72
2022/10/24 09:29:44;;;;;;;4.03;0.97;;;17.90;99.90;;;;;;6340453;22;20180;-72
2022/10/24 09:32:17;;;;;;;5.47;1.07;;;18.00;99.90;;;;;;6339739;22;20630;-72
2022/10/24 09:34:45;;;;;;;2.97;0.80;;;17.90;99.90;;;;;;6339923;22;20199;-73
2022/10/24 09:37:35;;;;;;;4.40;0.80;;;18.00;99.90;;;;;;6340324;22;20173;-73
2022/10/24 09:40:09;;;;;;;1.93;0.50;;;18.10;99.90;;;;;;6340248;22;20178;-74
2022/10/24 09:42:37;;;;;;;2.67;0.50;;;18.10;99.90;;;;;;6339751;22;20174;-72
2022/10/24 09:45:29;;;;;;;3.47;0.50;;;18.10;99.90;;;;;;6339838;22;20665;-73
2022/10/24 09:47:57;;;;;;;4.03;0.50;;;18.00;99.90;;;;;;6340170;22;20173;-74
2022/10/24 09:50:25;;;;;;;3.83;0.80;;;17.90;99.90;;;;;;6340160;22;20203;-72
2022/10/24 09:52:57;;;;;;;7.03;0.70;;;18.00;99.90;;;;;;6340038;22;20180;-73
2022/10/24 09:55:27;;;;;;;5.93;0.70;;;18.00;99.90;;;;;;6339404;22;20203;-72
2022/10/24 09:57:56;;;;;;;5.75;0.60;;;18.00;99.90;;;;;;6339917;22;20173;-72
2022/10/24 10:00:27;;;;;;;2.80;0.82;;;18.20;99.90;;;;;;6340066;22;20180;-72
2022/10/24 10:03:03;;;;;;;3.10;0.57;;;18.30;99.90;;;;;;6340026;22;20179;-73
2022/10/24 10:05:43;;;;;;;4.32;1.10;;;18.40;99.90;;;;;;6339908;22;20193;-71
2022/10/24 10:08:16;;;;;;;5.72;0.82;;;18.30;99.90;;;;;;6339240;22;20705;-72
2022/10/24 10:10:43;;;;;;;3.65;0.60;;;18.10;99.90;;;;;;6339911;22;20200;-73
2022/10/24 10:13:23;;;;;;;2.20;0.70;;;18.20;99.90;;;;;;6339950;22;20173;-72
2022/10/24 10:15:53;;;;;;;2.85;0.60;;;18.30;99.90;;;;;;6339759;22;20215;-73
2022/10/24 10:18:32;;;;;;;5.47;1.77;;;18.20;99.90;;;;;;6339516;22;20181;-73
2022/10/24 10:21:06;;;;;;;4.85;0.70;;;18.20;99.90;;;;;;6339379;22;20633;-72
2022/10/24 10:23:38;;;;;;;4.90;0.68;;;18.20;99.90;;;;;;6339274;22;20184;-71
2022/10/24 10:26:07;;;;;;;6.20;0.50;;;18.00;99.90;;;;;;6339356;22;20250;-71
2022/10/24 10:28:41;;;;;;;6.13;0.80;;;18.10;99.90;;;;;;6339563;22;20629;-72
2022/10/24 10:31:10;;;;;;;2.13;0.70;;;18.20;99.90;;;;;;6339374;22;20205;-72
2022/10/24 10:33:43;;;;;;;5.65;0.60;;;18.40;99.90;;;;;;6339532;22;20173;-73
2022/10/24 10:36:15;;;;;;;7.43;1.17;;;18.50;99.90;;;;;;6339570;22;20197;-71
2022/10/24 10:38:51;;;;;;;3.70;0.60;;;18.50;99.90;;;;;;6339252;22;20180;-73
2022/10/24 10:41:37;;;;;;;3.30;0.55;;;18.40;99.90;;;;;;6339471;22;20177;-71
2022/10/24 10:44:27;;;;;;;4.43;0.63;;;18.50;99.90;;;;;;6339565;22;20173;-73
2022/10/24 10:47:02;;;;;;;4.22;0.98;;;18.70;99.90;;;;;;6339976;22;20180;-72
2022/10/24 10:49:31;;;;;;;3.45;0.52;;;18.80;99.90;;;;;;6339564;22;20184;-74
2022/10/24 10:52:05;;;;;;;4.70;0.80;;;18.70;99.90;;;;;;6339508;22;20227;-72
2022/10/24 10:55:10;;;;;;;4.18;0.50;;;18.80;99.90;;;;;;6339068;22;20200;-72
2022/10/24 10:57:47;;;;;;;2.88;0.50;;;18.80;99.90;;;;;;6333822;22;20651;-69
2022/10/24 11:00:17;;;;;;;6.03;0.73;;;18.80;99.90;;;;;;6339088;22;20643;-71
2022/10/24 11:03:09;;;;;;;2.25;0.35;;;18.80;99.90;;;;;;6339453;22;20173;-72
2022/10/24 11:05:46;;;;;;;3.22;0.50;;;18.90;99.90;;;;;;6322379;22;20677;-71
2022/10/24 11:08:33;;;;;;;2.60;0.55;;;18.80;99.90;;;;;;6338842;22;20655;-71
2022/10/24 11:11:06;;;;;;;4.05;0.60;;;18.70;99.90;;;;;;6339193;22;20202;-71
2022/10/24 11:13:39;;;;;;;1.27;0.40;;;18.60;99.90;;;;;;6339492;22;20177;-72
2022/10/24 11:16:10;;;;;;;3.80;0.40;;;18.40;99.90;;;;;;6339217;22;20192;-71
2022/10/24 11:18:39;;;;;;;5.20;0.68;;;18.20;99.90;;;;;;6339122;22;20181;-71
2022/10/24 11:21:08;;;;;;;3.20;0.50;;;17.80;99.90;;;;;;6339284;22;20179;-72
2022/10/24 11:23:40;;;;;;;3.30;0.83;;;17.60;99.90;;;;;;6339195;22;20173;-71
2022/10/24 11:26:14;;;;;;;4.97;0.87;;;17.50;99.90;;;;;;6339151;22;20677;-70
2022/10/24 11:28:46;;;;;;;4.27;0.60;;;17.50;99.90;;;;;;6339327;22;20178;-72
2022/10/24 11:31:17;;;;;;;3.05;0.55;;;17.60;99.90;;;;;;6339205;22;20205;-71
2022/10/24 11:33:49;;;;;;;4.53;1.05;;;17.90;99.90;;;;;;6338867;22;20173;-72
2022/10/24 11:36:20;;;;;;;1.58;0.40;;;17.90;99.90;;;;;;6339389;22;20173;-72
2022/10/24 11:38:51;;;;;;;4.75;0.68;;;18.00;99.90;;;;;;6339755;22;20180;-71
2022/10/24 11:41:41;;;;;;;2.95;0.70;;;18.20;99.90;;;;;;6339306;22;20501;-71
2022/10/24 11:44:23;;;;;;;3.25;0.60;;;18.30;99.90;;;;;;6338869;22;20193;-70
2022/10/24 11:46:55;;;;;;;4.32;0.70;;;18.50;99.90;;;;;;6339090;22;20261;-72
2022/10/24 11:49:28;;;;;;;5.05;0.50;;;18.60;99.90;;;;;;6338564;22;20260;-71
2022/10/24 11:51:59;;;;;;;2.35;0.55;;;18.70;99.90;;;;;;6339175;22;20205;-71
2022/10/24 11:54:31;;;;;;;1.75;0.47;;;18.80;99.90;;;;;;6339154;22;20569;-72
2022/10/24 11:57:04;;;;;;;1.45;0.40;;;18.80;99.90;;;;;;6338737;22;20252;-71
2022/10/24 11:59:31;;;;;;;3.05;0.38;;;18.70;99.90;;;;;;6339070;22;20181;-72
2022/10/24 12:02:26;;;;;;;2.92;0.45;;;18.40;99.90;;;;;;6339040;22;20256;-72
2022/10/24 12:05:23;;;;;;;1.73;0.53;;;18.00;99.90;;;;;;6338511;22;20272;-72
2022/10/24 12:08:42;;;;;;;3.90;0.50;;;17.40;99.90;;;;;;6339424;22;20275;-71
2022/10/24 12:11:25;;;;;;;2.30;1.30;;;16.80;99.90;;;;;;6275455;22;20733;-70
2022/10/24 12:14:19;;;;;;;2.23;0.37;;;16.50;99.90;;;;;;6338786;22;20252;-70
2022/10/24 12:16:55;;;;;;;2.80;0.40;;;16.30;99.90;;;;;;6338742;22;20667;-72
2022/10/24 12:19:23;;;;;;;5.20;0.60;;;16.10;99.90;;;;;;6338800;22;20260;-69
2022/10/24 12:21:54;;;;;;;2.27;0.67;;;15.90;99.90;;;;;;6339049;22;20177;-71
2022/10/24 12:24:28;;;;;;;3.77;0.60;;;15.90;99.90;;;;;;6338611;22;20272;-71
2022/10/24 12:27:01;;;;;;;1.93;0.53;;;15.90;99.90;;;;;;6339231;22;20225;-71
2022/10/24 12:29:32;;;;;;;1.90;0.53;;;15.80;99.90;;;;;;6338752;22;20173;-72
2022/10/24 12:31:59;;;;;;;3.70;0.43;;;15.90;99.90;;;;;;6338826;22;20212;-72
2022/10/24 12:34:57;;;;;;;2.10;0.40;;;16.00;99.90;;;;;;6338878;22;20200;-72
2022/10/24 12:37:33;;;;;;;1.23;0.40;;;16.00;99.90;;;;;;6338976;22;20180;-70
2022/10/24 12:40:38;;;;;;;4.73;0.60;;;16.00;99.90;;;;;;6339308;22;20177;-70
2022/10/24 12:43:13;;;;;;;6.33;1.63;;;16.20;99.90;;;;;;6338366;22;20173;-69
2022/10/24 12:45:41;;;;;;;2.07;0.63;;;16.20;99.90;;;;;;6338926;22;20200;-70
2022/10/24 12:48:31;;;;;;;2.93;0.60;;;16.20;99.90;;;;;;6338958;22;20173;-70
2022/10/24 12:51:36;;;;;;;2.67;0.60;;;16.10;99.90;;;;;;6338868;22;20493;-69
2022/10/24 12:54:14;;;;;;;2.90;0.40;;;16.00;99.90;;;;;;6307224;22;20180;-70
2022/10/24 12:57:14;;;;;;;6.90;0.70;;;16.00;99.90;;;;;;6338758;22;20184;-72
2022/10/24 12:59:47;;;;;;;1.83;0.83;;;16.00;99.90;;;;;;6338688;22;20195;-71
2022/10/24 13:02:37;;;;;;;4.67;0.60;;;15.90;99.90;;;;;;6339699;22;20179;-71
2022/10/24 13:05:16;;;;;;;2.43;0.77;;;15.90;99.90;;;;;;6340091;22;20197;-72
2022/10/24 13:08:01;;;;;;;3.13;0.50;;;15.90;99.90;;;;;;6340733;22;20181;-70
2022/10/24 13:10:38;;;;;;;2.23;0.47;;;15.90;99.90;;;;;;6340745;22;20173;-71
2022/10/24 13:13:25;;;;;;;1.00;0.50;;;15.80;99.90;;;;;;6340522;22;20205;-70
2022/10/24 13:15:57;;;;;;;6.70;0.70;;;15.70;99.90;;;;;;6340621;22;20192;-70
2022/10/24 13:18:39;;;;;;;3.87;0.40;;;15.80;99.90;;;;;;6339896;22;20621;-70
2022/10/24 13:21:14;;;;;;;1.50;0.57;;;15.90;99.90;;;;;;6340508;22;20508;-71
2022/10/24 13:23:42;;;;;;;3.50;0.57;;;15.90;99.90;;;;;;6340688;22;20173;-72
2022/10/24 13:26:36;;;;;;;6.67;0.57;;;15.90;99.90;;;;;;6340264;22;20280;-72
2022/10/24 13:29:03;;;;;;;5.50;0.70;;;16.00;99.90;;;;;;6340346;22;20177;-71
2022/10/24 13:31:49;;;;;;;2.87;0.60;;;16.00;99.90;;;;;;6339694;22;20215;-72
2022/10/24 13:34:37;;;;;;;1.00;0.37;;;16.10;99.90;;;;;;6340349;22;20517;-71
2022/10/24 13:37:16;;;;;;;3.67;0.63;;;16.20;99.90;;;;;;6340486;22;20505;-72
2022/10/24 13:39:48;;;;;;;2.50;0.50;;;16.20;99.90;;;;;;6339223;22;20173;-69
2022/10/24 13:42:24;;;;;;;5.70;0.70;;;16.30;99.90;;;;;;6339496;22;20195;-71
2022/10/24 13:44:56;;;;;;;3.63;0.50;;;16.40;99.90;;;;;;6339270;22;20517;-70
2022/10/24 13:47:28;;;;;;;1.57;0.50;;;16.40;99.90;;;;;;6339664;22;20173;-69
2022/10/24 13:49:59;;;;;;;4.80;0.50;;;16.40;99.90;;;;;;6339018;22;20184;-69
2022/10/24 13:52:33;;;;;;;4.17;0.50;;;16.40;99.90;;;;;;6339009;22;20223;-71
2022/10/24 13:55:05;;;;;;;2.57;0.50;;;16.40;99.90;;;;;;6339042;22;20204;-69
2022/10/24 13:57:35;;;;;;;1.53;0.50;;;16.50;99.90;;;;;;6339519;22;20179;-72
2022/10/24 14:00:05;;;;;;;3.63;0.50;;;16.60;99.90;;;;;;6339548;22;20177;-69
2022/10/24 14:02:38;;;;;;;5.23;0.63;;;16.70;99.90;;;;;;6339429;22;20173;-71
2022/10/24 14:05:07;;;;;;;2.70;0.73;;;16.80;99.90;;;;;;6339332;22;20200;-71
2022/10/24 14:07:34;;;;;;;3.57;0.63;;;17.00;99.90;;;;;;6339482;22;20179;-71
2022/10/24 14:10:04;;;;;;;3.40;0.47;;;17.20;99.90;;;;;;6339354;22;20184;-71
2022/10/24 14:12:35;;;;;;;3.07;0.40;;;17.20;99.90;;;;;;6339390;22;20295;-71
2022/10/24 14:15:03;;;;;;;1.20;0.40;;;17.20;99.90;;;;;;6340110;22;20204;-72
2022/10/24 14:17:33;;;;;;;4.87;0.73;;;17.20;99.90;;;;;;6339793;22;20173;-72
2022/10/24 14:20:01;;;;;;;6.87;1.20;;;17.10;99.90;;;;;;6338631;22;20184;-72
2022/10/24 14:22:38;;;;;;;2.97;0.60;;;17.10;99.90;;;;;;6339764;22;20256;-72
2022/10/24 14:25:06;;;;;;;4.77;0.50;;;17.10;99.90;;;;;;6339068;22;20231;-72
2022/10/24 14:27:33;;;;;;;5.27;0.60;;;17.00;99.90;;;;;;6339742;22;20180;-72
2022/10/24 14:30:03;;;;;;;2.27;0.50;;;16.90;99.90;;;;;;6339016;22;20184;-71
2022/10/24 14:32:31;;;;;;;2.10;0.60;;;16.90;99.90;;;;;;6339486;22;20205;-71
2022/10/24 14:35:00;;;;;;;1.50;0.70;;;17.00;99.90;;;;;;6339714;22;20193;-71
2022/10/24 14:37:31;;;;;;;3.67;0.70;;;16.90;99.90;;;;;;6339631;22;20179;-72
2022/10/24 14:39:58;;;;;;;2.83;0.40;;;16.80;99.90;;;;;;6332835;22;20173;-72
2022/10/24 14:42:26;;;;;;;1.83;0.67;;;16.70;99.90;;;;;;6337821;22;20173;-73
2022/10/24 14:44:55;;;;;;;3.27;0.60;;;16.70;99.90;;;;;;6337465;22;20204;-73
2022/10/24 14:47:25;;;;;;;3.97;0.67;;;16.60;99.90;;;;;;6337180;22;20173;-72
2022/10/24 14:49:52;;;;;;;2.90;0.50;;;16.70;99.90;;;;;;6337088;22;20177;-73
2022/10/24 14:52:24;;;;;;;3.70;0.50;;;16.60;99.90;;;;;;6336744;22;20287;-73
2022/10/24 14:54:57;;;;;;;3.30;0.50;;;16.70;99.90;;;;;;6336542;22;20525;-72
2022/10/24 14:57:24;;;;;;;5.97;0.87;;;16.70;99.90;;;;;;6336970;22;20173;-72
2022/10/24 14:59:54;;;;;;;1.40;0.40;;;16.80;99.90;;;;;;6336563;22;20185;-72
2022/10/24 15:02:24;;;;;;;2.00;0.50;;;16.70;99.90;;;;;;6336887;22;20177;-71
2022/10/24 15:04:53;;;;;;;4.17;0.60;;;16.60;99.90;;;;;;6337051;22;20197;-70
2022/10/24 15:07:31;;;;;;;4.33;0.40;;;16.60;99.90;;;;;;6336722;22;20181;-71
2022/10/24 15:10:01;;;;;;;1.67;0.40;;;16.60;99.90;;;;;;6335978;22;20172;-71
2022/10/24 15:12:32;;;;;;;2.00;0.60;;;16.60;99.90;;;;;;6336628;22;20516;-70
2022/10/24 15:15:15;;;;;;;4.23;0.53;;;16.40;99.90;;;;;;6336077;22;20673;-72
2022/10/24 15:17:42;;;;;;;3.67;0.30;;;16.20;99.90;;;;;;6335648;22;20207;-70
2022/10/24 15:20:15;;;;;;;5.97;0.50;;;16.20;99.90;;;;;;6336473;22;20267;-71
2022/10/24 15:22:47;;;;;;;4.03;0.43;;;16.10;99.90;;;;;;6333028;22;20192;-70
2022/10/24 15:25:21;;;;;;;2.40;0.50;;;16.10;99.90;;;;;;6336493;22;20215;-71
2022/10/24 15:27:48;;;;;;;3.87;0.80;;;16.10;99.90;;;;;;6337072;22;20173;-69
2022/10/24 15:30:16;;;;;;;2.23;0.90;;;16.10;99.90;;;;;;6336677;22;20177;-70
2022/10/24 15:32:44;;;;;;;2.60;0.83;;;16.20;99.90;;;;;;6336227;22;20677;-70
2022/10/24 15:35:12;;;;;;;3.43;0.80;;;16.30;99.90;;;;;;6337882;22;20563;-70
2022/10/24 15:37:39;;;;;;;4.17;0.40;;;16.30;99.90;;;;;;6336913;22;20256;-70
2022/10/24 15:40:15;;;;;;;2.70;0.40;;;16.30;99.90;;;;;;6336639;22;20173;-70
2022/10/24 15:42:43;;;;;;;2.90;0.70;;;16.30;99.90;;;;;;6337338;22;20215;-69
2022/10/24 15:45:14;;;;;;;3.53;0.80;;;16.20;99.90;;;;;;6335908;22;20193;-69
2022/10/24 15:47:40;;;;;;;6.73;0.77;;;16.10;99.90;;;;;;6336175;22;20252;-70
2022/10/24 15:50:09;;;;;;;3.23;0.80;;;16.10;99.90;;;;;;6336622;22;20179;-70
2022/10/24 15:52:36;;;;;;;1.90;0.50;;;16.10;99.90;;;;;;6336855;22;20212;-69
2022/10/24 15:55:02;;;;;;;3.27;0.63;;;16.00;99.90;;;;;;6336610;22;20193;-69
2022/10/24 15:57:29;;;;;;;4.23;0.60;;;15.90;99.90;;;;;;6336092;22;20180;-69
2022/10/24 15:59:57;;;;;;;5.07;0.70;;;15.80;99.90;;;;;;6332945;22;20560;-71
2022/10/24 16:02:25;;;;;;;2.30;0.83;;;15.80;99.90;;;;;;6336368;22;20181;-71
2022/10/24 16:04:52;;;;;;;1.20;0.37;;;15.80;99.90;;;;;;6336717;22;20207;-70
2022/10/24 16:07:19;;;;;;;2.50;0.60;;;15.70;99.90;;;;;;6336811;22;20177;-70
2022/10/24 16:09:46;;;;;;;3.10;0.60;;;15.70;99.90;;;;;;6336063;22;20238;-72
2022/10/24 16:12:13;;;;;;;2.40;0.93;;;15.60;99.90;;;;;;6336052;22;20653;-71
2022/10/24 16:14:40;;;;;;;3.10;0.60;;;15.60;99.90;;;;;;6335581;22;20277;-71
2022/10/24 16:17:08;;;;;;;6.03;1.33;;;15.50;99.90;;;;;;6334539;22;20174;-71
2022/10/24 16:22:12;;;;;;;3.23;1.20;;;15.40;99.90;;;;;;5108861;27;20555;-69
2022/10/24 16:24:38;;;;;;;4.50;1.48;;;15.40;99.90;;;;;;5107238;28;20516;-71
2022/10/24 16:29:35;;;;;;;6.53;2.43;;;15.40;99.90;;;;;;5087996;28;20621;-69
2022/10/24 16:32:02;;;;;;;5.50;2.13;;;15.30;99.90;;;;;;5068767;28;20209;-68
2022/10/24 16:34:28;;;;;;;4.93;1.47;;;15.20;99.90;;;;;;5068290;28;20246;-70
2022/10/24 16:36:55;;;;;;;3.93;1.13;;;15.20;99.90;;;;;;5068629;28;20203;-70
2022/10/24 16:39:22;;;;;;;4.87;1.43;;;15.20;99.90;;;;;;5064072;28;20216;-69
2022/10/24 16:41:54;;;;;;;3.60;1.40;;;15.20;99.90;;;;;;5065564;28;20668;-72
2022/10/24 16:44:20;;;;;;;4.30;1.80;;;15.20;99.90;;;;;;5048216;28;20315;-72
2022/10/24 16:46:49;;;;;;;3.87;1.47;;;15.30;99.90;;;;;;5047493;28;20212;-68
2022/10/24 16:49:16;;;;;;;6.97;1.83;;;15.30;99.90;;;;;;5047973;28;20593;-69
2022/10/24 16:51:45;;;;;;;6.33;0.87;;;15.20;99.90;;;;;;5064958;28;20210;-70
2022/10/24 16:54:12;;;;;;;3.50;1.00;;;15.20;99.90;;;;;;5067584;28;20303;-69
2022/10/24 16:56:39;;;;;;;3.70;1.07;;;15.10;99.90;;;;;;5056541;28;20211;-70
2022/10/24 16:59:06;;;;;;;3.87;1.10;;;15.10;99.90;;;;;;5048124;28;20206;-69
2022/10/24 17:01:32;;;;;;;2.97;0.67;;;15.10;99.90;;;;;;5062794;28;20204;-69
2022/10/24 17:04:01;;;;;;;5.03;1.03;;;15.00;99.90;;;;;;5067759;28;20207;-71
2022/10/24 17:06:27;;;;;;;5.70;1.00;;;15.10;99.90;;;;;;5067648;28;20211;-72
2022/10/24 17:08:54;;;;;;;3.10;1.00;;;15.00;99.90;;;;;;5068108;28;20227;-71
2022/10/24 17:11:21;;;;;;;6.80;1.00;;;15.10;99.90;;;;;;5061603;28;20210;-70
2022/10/24 17:13:49;;;;;;;3.53;1.03;;;15.20;99.90;;;;;;5066741;28;20203;-69
2022/10/24 17:16:15;;;;;;;5.07;1.10;;;15.20;99.90;;;;;;5066678;28;20680;-69
2022/10/24 17:18:42;;;;;;;3.07;1.57;;;15.30;99.90;;;;;;5067480;28;20231;-70
2022/10/24 17:21:12;;;;;;;4.30;1.20;;;15.40;99.90;;;;;;5061875;28;20298;-68
2022/10/24 17:23:40;;;;;;;4.97;0.90;;;15.40;99.90;;;;;;5054654;28;20602;-69
2022/10/24 17:26:14;;;;;;;3.97;0.77;;;15.50;99.90;;;;;;5048577;28;20239;-69
2022/10/24 17:28:41;;;;;;;5.53;1.20;;;15.50;99.90;;;;;;5067086;28;20593;-69
2022/10/24 17:31:08;;;;;;;6.37;1.03;;;15.60;99.90;;;;;;5060587;28;20219;-69
2022/10/24 17:33:35;;;;;;;2.83;0.57;;;15.50;99.90;;;;;;5067838;28;20211;-69
2022/10/24 17:36:04;;;;;;;2.73;0.80;;;15.60;99.90;;;;;;5067953;28;20786;-69
2022/10/24 17:38:40;;;;;;;2.63;0.50;;;15.60;99.90;;;;;;5068318;28;20546;-68
2022/10/24 17:41:17;;;;;;;2.13;0.60;;;15.60;99.90;;;;;;5036665;28;20216;-69
2022/10/24 17:43:44;;;;;;;3.13;0.70;;;15.60;99.90;;;;;;5035063;28;20208;-69
2022/10/24 17:46:12;;;;;;;4.43;0.50;;;15.60;99.90;;;;;;5035401;28;20228;-68
2022/10/24 17:48:39;;;;;;;1.60;0.90;;;15.70;99.90;;;;;;5034546;28;20232;-68
2022/10/24 17:51:08;;;;;;;1.50;0.50;;;15.60;99.90;;;;;;5034232;28;20219;-68
2022/10/24 17:53:36;;;;;;;3.83;1.63;;;15.40;99.90;;;;;;5035164;28;20235;-68
2022/10/24 17:56:04;;;;;;;2.03;0.30;;;15.10;99.90;;;;;;5053671;28;20670;-68
2022/10/24 17:58:30;;;;;;;0.57;0.30;;;14.90;99.90;;;;;;5054633;28;20204;-69
2022/10/24 18:00:57;;;;;;;0.50;0.30;;;14.80;99.90;;;;;;5037587;28;20211;-69
2022/10/24 18:03:26;;;;;;;0.30;0.20;;;14.80;99.90;;;;;;5034342;28;20209;-69
2022/10/24 18:05:57;;;;;;;0.30;0.10;;;14.70;99.90;;;;;;5034292;28;20231;-69
2022/10/24 18:08:23;;;;;;;0.77;0.30;;;14.60;99.90;;;;;;5034713;28;20236;-70
2022/10/24 18:10:52;;;;;;;1.23;0.40;;;14.50;99.90;;;;;;5034309;28;20682;-69
2022/10/24 18:13:18;;;;;;;2.80;0.30;;;14.60;99.90;;;;;;5034419;28;20201;-69
2022/10/24 18:15:45;;;;;;;1.63;0.50;;;14.50;99.90;;;;;;5034889;28;20243;-69
2022/10/24 18:18:12;;;;;;;2.87;0.43;;;14.50;99.90;;;;;;5033965;28;20204;-70
2022/10/24 18:20:39;;;;;;;1.07;0.47;;;14.60;99.90;;;;;;5034105;28;20764;-70
2022/10/24 18:23:06;;;;;;;1.77;0.37;;;14.50;99.90;;;;;;5034317;28;20205;-69
2022/10/24 18:25:33;;;;;;;3.67;1.23;;;14.50;99.90;;;;;;5032730;28;20251;-69
2022/10/24 18:28:01;;;;;;;6.73;2.37;;;14.50;99.90;;;;;;5052189;28;20204;-69
2022/10/24 18:30:27;;;;;;;2.07;0.97;;;14.50;99.90;;;;;;5054403;28;20650;-70
2022/10/24 18:32:54;;;;;;;2.20;0.60;;;14.50;99.90;;;;;;5054131;28;20223;-69
2022/10/24 18:35:21;;;;;;;2.47;1.00;;;14.60;99.90;;;;;;5053587;28;20703;-69
2022/10/24 18:37:48;;;;;;;3.30;1.43;;;14.60;99.90;;;;;;5054254;28;20204;-70
2022/10/24 18:40:16;;;;;;;3.20;0.83;;;14.50;99.90;;;;;;5054489;28;20200;-68
2022/10/24 18:42:48;;;;;;;2.77;1.17;;;14.50;99.90;;;;;;5054513;28;20562;-68
2022/10/24 18:45:21;;;;;;;1.93;1.10;;;14.50;99.90;;;;;;5054221;28;20239;-69
2022/10/24 18:47:48;;;;;;;9.60;1.13;;;14.60;99.90;;;;;;5054400;28;20200;-69
2022/10/24 18:50:17;;;;;;;4.83;1.47;;;14.60;99.90;;;;;;5053669;28;20722;-69
2022/10/24 18:52:50;;;;;;;4.93;0.83;;;14.60;99.90;;;;;;5053001;28;20211;-69
2022/10/24 18:55:18;;;;;;;1.80;0.80;;;14.50;99.90;;;;;;5054264;28;20234;-69
2022/10/24 18:57:45;;;;;;;2.67;0.60;;;14.50;99.90;;;;;;5054216;28;20697;-69
2022/10/24 19:00:14;;;;;;;2.37;0.70;;;14.50;99.90;;;;;;5054037;28;20208;-70
2022/10/24 19:02:53;;;;;;;2.87;1.07;;;14.50;99.90;;;;;;5054061;28;20685;-68
2022/10/24 19:05:22;;;;;;;2.33;0.73;;;14.60;99.90;;;;;;5054140;28;20224;-69
2022/10/24 19:07:50;;;;;;;1.37;0.60;;;14.60;99.90;;;;;;5053936;28;20236;-70
2022/10/24 19:10:21;;;;;;;1.73;0.70;;;14.50;99.90;;;;;;5053722;28;20227;-70
2022/10/24 19:12:49;;;;;;;1.47;0.70;;;14.50;99.90;;;;;;5053703;28;20208;-70
2022/10/24 19:15:16;;;;;;;1.43;0.60;;;14.50;99.90;;;;;;5053877;28;20695;-71
2022/10/24 19:17:45;;;;;;;1.80;0.60;;;14.60;99.90;;;;;;5053938;28;20287;-70
2022/10/24 19:20:18;;;;;;;1.40;0.70;;;14.50;99.90;;;;;;5053809;28;20212;-69
2022/10/24 19:22:45;;;;;;;1.90;0.60;;;14.50;99.90;;;;;;5053516;28;20655;-69
2022/10/24 19:25:12;;;;;;;3.13;0.90;;;14.50;99.90;;;;;;5053258;28;20250;-69
2022/10/24 19:27:39;;;;;;;2.87;0.90;;;14.50;99.90;;;;;;5053404;28;20215;-71
2022/10/24 19:30:08;;;;;;;2.60;0.50;;;14.50;99.90;;;;;;5053300;28;20235;-69
2022/10/24 19:32:34;;;;;;;3.23;0.70;;;14.50;99.90;;;;;;5053420;28;20214;-69
2022/10/24 19:35:03;;;;;;;2.07;0.60;;;14.40;99.90;;;;;;5053281;28;20310;-69
2022/10/24 19:37:30;;;;;;;2.50;0.90;;;14.30;99.90;;;;;;5053543;28;20215;-69
2022/10/24 19:39:57;;;;;;;3.30;0.60;;;14.30;99.90;;;;;;5053120;28;20210;-68
2022/10/24 19:42:24;;;;;;;5.40;0.83;;;14.30;99.90;;;;;;5053519;28;20208;-68
2022/10/24 19:44:53;;;;;;;1.33;0.60;;;14.30;99.90;;;;;;5053155;28;20313;-68
2022/10/24 19:47:20;;;;;;;2.27;0.60;;;14.40;99.90;;;;;;5053324;28;20290;-68
2022/10/24 19:49:47;;;;;;;1.57;0.60;;;14.60;99.90;;;;;;5052689;28;20767;-68
2022/10/24 19:52:15;;;;;;;3.33;0.60;;;14.60;99.90;;;;;;5053064;28;20207;-69
2022/10/24 19:54:42;;;;;;;2.37;0.47;;;14.60;99.90;;;;;;5052681;28;20224;-68
2022/10/24 19:57:09;;;;;;;5.33;0.60;;;14.60;99.90;;;;;;5052941;28;20290;-68
2022/10/24 19:59:36;;;;;;;2.23;0.60;;;14.60;99.90;;;;;;5053103;28;20204;-68
2022/10/24 20:02:03;;;;;;;3.00;0.60;;;14.70;99.90;;;;;;5052632;28;20215;-68
2022/10/24 20:04:30;;;;;;;4.97;0.80;;;14.70;99.90;;;;;;5052941;28;20235;-68
2022/10/24 20:06:57;;;;;;;1.03;0.70;;;14.80;99.90;;;;;;5053042;28;20204;-69
2022/10/24 20:09:25;;;;;;;2.27;0.70;;;14.90;99.90;;;;;;5052613;28;20239;-68
2022/10/24 20:11:52;;;;;;;3.90;1.67;;;14.90;99.90;;;;;;5052873;28;20314;-69
2022/10/24 20:14:19;;;;;;;2.47;0.67;;;14.90;99.90;;;;;;5053017;28;20315;-69
2022/10/24 20:16:45;;;;;;;3.03;0.90;;;14.90;99.90;;;;;;5052549;28;20673;-68
2022/10/24 20:19:12;;;;;;;3.17;0.50;;;15.00;99.90;;;;;;5052765;28;20226;-68
2022/10/24 20:21:39;;;;;;;3.70;0.80;;;14.90;99.90;;;;;;5052642;28;20205;-68
2022/10/24 20:24:07;;;;;;;2.37;0.67;;;14.90;99.90;;;;;;5052703;28;20201;-68
2022/10/24 20:26:35;;;;;;;1.03;0.37;;;14.90;99.90;;;;;;5052527;28;20211;-68
2022/10/24 20:29:03;;;;;;;3.77;0.60;;;14.80;99.90;;;;;;5052485;28;20570;-69
2022/10/24 20:31:31;;;;;;;5.53;0.90;;;14.70;99.90;;;;;;5052499;28;20728;-68
2022/10/24 20:34:01;;;;;;;1.70;0.50;;;14.70;99.90;;;;;;5052070;28;20200;-68
2022/10/24 20:36:29;;;;;;;4.77;0.60;;;14.60;99.90;;;;;;5052195;28;20204;-69
2022/10/24 20:38:59;;;;;;;3.40;0.50;;;14.70;99.90;;;;;;5051969;28;20207;-68
2022/10/24 20:41:27;;;;;;;3.70;0.40;;;14.70;99.90;;;;;;5052167;28;20208;-67
2022/10/24 20:43:55;;;;;;;4.30;0.60;;;14.70;99.90;;;;;;5052202;28;20203;-67
2022/10/24 20:46:22;;;;;;;2.60;0.50;;;14.70;99.90;;;;;;5051994;28;20208;-67
2022/10/24 20:48:48;;;;;;;3.50;0.50;;;14.70;99.90;;;;;;5051881;28;20227;-67
2022/10/24 20:51:18;;;;;;;4.30;0.93;;;14.70;99.90;;;;;;5051948;28;20290;-67
2022/10/24 20:53:45;;;;;;;3.80;0.70;;;14.60;99.90;;;;;;5052254;28;20206;-67
2022/10/24 20:56:13;;;;;;;4.63;0.60;;;14.60;99.90;;;;;;5051987;28;20319;-67
2022/10/24 20:58:42;;;;;;;2.67;0.67;;;14.60;99.90;;;;;;5051927;28;20223;-67
2022/10/24 21:01:12;;;;;;;2.60;0.67;;;14.60;99.90;;;;;;5051928;28;20215;-68
2022/10/24 21:03:40;;;;;;;2.47;0.60;;;14.50;99.90;;;;;;5052337;28;20603;-68
2022/10/24 21:06:15;;;;;;;4.63;0.70;;;14.60;99.90;;;;;;5052132;28;20232;-67
2022/10/24 21:08:42;;;;;;;3.43;0.43;;;14.60;99.90;;;;;;5052253;28;20666;-67
2022/10/24 21:11:12;;;;;;;5.07;0.70;;;14.60;99.90;;;;;;5052264;28;20655;-68
2022/10/24 21:13:38;;;;;;;3.17;0.60;;;14.70;99.90;;;;;;5052230;28;20662;-67
2022/10/24 21:16:06;;;;;;;1.53;0.60;;;14.70;99.90;;;;;;5055209;28;20226;-67
2022/10/24 21:18:34;;;;;;;4.57;0.60;;;14.70;99.90;;;;;;5055678;28;20202;-67
2022/10/24 21:21:06;;;;;;;3.60;0.97;;;14.70;99.90;;;;;;5055874;28;20329;-67
2022/10/24 21:23:33;;;;;;;3.03;0.80;;;14.80;99.90;;;;;;5055893;28;20650;-67
2022/10/24 21:26:01;;;;;;;1.67;0.60;;;14.80;99.90;;;;;;5055879;28;20228;-67
2022/10/24 21:28:28;;;;;;;4.40;0.90;;;14.80;99.90;;;;;;5055472;28;20688;-67
2022/10/24 21:30:55;;;;;;;2.73;0.97;;;14.90;99.90;;;;;;5055429;28;20240;-67
2022/10/24 21:33:22;;;;;;;2.20;0.40;;;14.80;99.90;;;;;;5055343;28;20200;-67